createdAt,value
2022-10-19T00:00:01.334Z,84.80
2022-10-19T00:02:31.280Z,85.40
2022-10-19T00:05:01.301Z,85.20
2022-10-19T00:07:31.578Z,86.10
2022-10-19T00:10:01.277Z,86.70
2022-10-19T00:12:31.442Z,86.90
2022-10-19T00:15:01.409Z,87.40
2022-10-19T00:17:31.569Z,87.50
2022-10-19T00:20:01.565Z,87.90
2022-10-19T00:22:31.923Z,86.30
2022-10-19T00:25:01.442Z,85.30
2022-10-19T00:27:31.359Z,84.00
2022-10-19T00:30:01.003Z,85.00
2022-10-19T00:32:31.020Z,87.70
2022-10-19T00:35:00.892Z,89.10
2022-10-19T00:37:30.936Z,88.30
2022-10-19T00:40:00.901Z,87.80
2022-10-19T00:42:31.165Z,87.50
2022-10-19T00:45:02.290Z,88.70
2022-10-19T00:47:32.307Z,88.10
2022-10-19T00:50:01.678Z,86.60
2022-10-19T00:52:31.629Z,85.90
2022-10-19T00:55:02.275Z,84.40
2022-10-19T00:57:32.770Z,85.90
2022-10-19T01:00:06.044Z,86.60
2022-10-19T01:02:33.530Z,86.30
2022-10-19T01:05:02.284Z,85.60
2022-10-19T01:07:32.025Z,86.40
2022-10-19T01:10:02.209Z,86.40
2022-10-19T01:12:49.064Z,86.60
2022-10-19T01:15:18.143Z,88.40
2022-10-19T01:18:00.830Z,88.20
2022-10-19T01:20:30.848Z,89.60
2022-10-19T01:23:16.107Z,90.20
2022-10-19T01:26:07.678Z,87.60
2022-10-19T01:29:04.198Z,87.30
2022-10-19T01:31:49.197Z,87.30
2022-10-19T01:34:16.588Z,86.90
2022-10-19T01:36:47.999Z,87.60
2022-10-19T01:39:40.078Z,87.20
2022-10-19T01:42:22.535Z,85.00
2022-10-19T01:45:05.393Z,86.30
2022-10-19T01:47:43.345Z,88.40
2022-10-19T01:50:19.719Z,88.60
2022-10-19T01:52:49.648Z,86.20
2022-10-19T01:55:18.532Z,87.50
2022-10-19T01:57:56.614Z,89.40
2022-10-19T02:00:40.533Z,90.10
2022-10-19T02:03:13.636Z,89.70
2022-10-19T02:05:42.435Z,86.20
2022-10-19T02:08:28.796Z,86.50
2022-10-19T02:11:00.597Z,89.00
2022-10-19T02:13:32.049Z,89.10
2022-10-19T02:16:14.416Z,88.80
2022-10-19T02:18:46.581Z,87.90
2022-10-19T02:21:14.350Z,86.60
2022-10-19T02:23:41.613Z,85.80
2022-10-19T02:26:09.562Z,85.50
2022-10-19T02:28:37.351Z,87.40
2022-10-19T02:31:13.305Z,87.30
2022-10-19T02:33:42.098Z,89.00
2022-10-19T02:36:09.356Z,89.00
2022-10-19T02:38:36.845Z,88.90
2022-10-19T02:41:23.359Z,88.20
2022-10-19T02:43:58.652Z,87.80
2022-10-19T02:49:13.379Z,86.90
2022-10-19T02:51:58.649Z,86.40
2022-10-19T02:54:27.004Z,84.40
2022-10-19T02:56:56.744Z,84.00
2022-10-19T02:59:25.016Z,84.20
2022-10-19T03:01:52.571Z,83.60
2022-10-19T03:04:19.983Z,83.40
2022-10-19T03:06:47.351Z,83.30
2022-10-19T03:09:14.861Z,81.50
2022-10-19T03:11:42.365Z,79.80
2022-10-19T03:14:10.057Z,83.20
2022-10-19T03:16:39.552Z,85.90
2022-10-19T03:19:09.545Z,86.90
2022-10-19T03:21:37.375Z,87.50
2022-10-19T03:24:05.167Z,87.80
2022-10-19T03:26:32.924Z,86.80
2022-10-19T03:29:01.564Z,84.80
2022-10-19T03:31:31.942Z,89.30
2022-10-19T03:34:00.730Z,92.20
2022-10-19T03:36:33.992Z,94.30
2022-10-19T03:39:05.238Z,95.40
2022-10-19T03:41:36.442Z,95.70
2022-10-19T03:44:04.906Z,94.90
2022-10-19T03:46:34.383Z,93.70
2022-10-19T03:49:02.025Z,93.60
2022-10-19T03:51:31.169Z,93.50
2022-10-19T03:54:01.724Z,92.50
2022-10-19T03:56:30.103Z,91.00
2022-10-19T03:59:00.589Z,89.30
2022-10-19T04:01:34.091Z,88.90
2022-10-19T04:04:04.890Z,88.20
2022-10-19T04:06:35.372Z,87.70
2022-10-19T04:09:05.609Z,86.10
2022-10-19T04:11:34.463Z,88.00
2022-10-19T04:14:02.559Z,90.90
2022-10-19T04:16:33.826Z,92.50
2022-10-19T04:19:02.230Z,92.90
2022-10-19T04:21:32.582Z,92.40
2022-10-19T04:24:12.764Z,90.50
2022-10-19T04:26:46.054Z,89.40
2022-10-19T04:29:14.546Z,88.20
2022-10-19T04:31:43.302Z,87.60
2022-10-19T04:34:11.317Z,87.60
2022-10-19T04:36:38.911Z,87.50
2022-10-19T04:39:07.282Z,87.60
2022-10-19T04:41:35.153Z,88.80
2022-10-19T04:44:04.244Z,89.80
2022-10-19T04:46:39.996Z,88.40
2022-10-19T04:49:08.249Z,86.20
2022-10-19T04:51:35.998Z,88.00
2022-10-19T04:54:04.520Z,87.00
2022-10-19T04:56:32.650Z,86.50
2022-10-19T04:59:00.760Z,86.50
2022-10-19T05:01:31.101Z,85.60
2022-10-19T05:04:00.567Z,83.80
2022-10-19T05:06:28.574Z,82.20
2022-10-19T05:08:57.592Z,83.30
2022-10-19T05:11:26.582Z,83.40
2022-10-19T05:13:56.753Z,83.10
2022-10-19T05:16:25.460Z,82.90
2022-10-19T05:18:59.305Z,84.40
2022-10-19T05:21:29.086Z,87.10
2022-10-19T05:23:57.849Z,88.40
2022-10-19T05:26:29.491Z,88.60
2022-10-19T05:29:01.968Z,89.00
2022-10-19T05:31:32.269Z,88.10
2022-10-19T05:34:00.579Z,88.30
2022-10-19T05:36:34.652Z,89.40
2022-10-19T05:39:08.065Z,90.30
2022-10-19T05:41:35.804Z,91.30
2022-10-19T05:44:05.062Z,91.70
2022-10-19T05:46:33.965Z,91.60
2022-10-19T05:49:01.489Z,91.20
2022-10-19T05:51:32.086Z,90.00
2022-10-19T05:53:59.768Z,88.40
2022-10-19T05:56:30.409Z,87.30
2022-10-19T05:58:58.368Z,87.10
2022-10-19T06:01:28.186Z,86.10
2022-10-19T06:03:57.836Z,85.00
2022-10-19T06:06:27.358Z,83.80
2022-10-19T06:08:57.166Z,83.10
2022-10-19T06:11:28.866Z,82.40
2022-10-19T06:13:59.597Z,82.80
2022-10-19T06:16:30.684Z,82.80
2022-10-19T06:18:59.010Z,82.10
2022-10-19T06:21:30.612Z,83.20
2022-10-19T06:24:00.573Z,84.60
2022-10-19T06:26:28.861Z,85.40
2022-10-19T06:29:00.795Z,85.70
2022-10-19T06:31:31.834Z,84.80
2022-10-19T06:33:59.814Z,84.10
2022-10-19T06:36:30.192Z,83.80
2022-10-19T06:38:57.575Z,83.20
2022-10-19T06:41:25.632Z,82.70
2022-10-19T06:43:56.505Z,82.50
2022-10-19T06:46:27.899Z,82.50
2022-10-19T06:49:01.036Z,82.30
2022-10-19T06:51:30.272Z,83.40
2022-10-19T06:53:57.777Z,84.30
2022-10-19T06:56:26.935Z,83.50
2022-10-19T06:58:56.752Z,82.70
2022-10-19T07:01:26.478Z,83.50
2022-10-19T07:03:56.617Z,83.00
2022-10-19T07:06:26.900Z,83.20
2022-10-19T07:08:55.617Z,82.00
2022-10-19T07:11:25.591Z,81.80
2022-10-19T07:13:58.000Z,81.80
2022-10-19T07:16:48.190Z,82.10
2022-10-19T07:19:43.503Z,81.90
2022-10-19T07:22:22.160Z,81.90
2022-10-19T07:25:01.113Z,82.90
2022-10-19T07:27:37.400Z,84.10
2022-10-19T07:30:26.524Z,83.70
2022-10-19T07:33:21.629Z,84.60
2022-10-19T07:36:21.236Z,85.10
2022-10-19T07:39:01.434Z,85.00
2022-10-19T07:41:53.154Z,86.10
2022-10-19T07:44:44.869Z,85.60
2022-10-19T07:47:42.337Z,85.40
2022-10-19T07:50:40.720Z,84.80
2022-10-19T07:53:39.735Z,83.50
2022-10-19T07:56:33.970Z,83.40
2022-10-19T07:59:02.860Z,82.70
2022-10-19T08:01:36.322Z,81.70
2022-10-19T08:06:55.251Z,80.10
2022-10-19T08:09:51.354Z,79.70
2022-10-19T08:12:15.083Z,79.40
2022-10-19T08:14:42.705Z,79.80
2022-10-19T08:17:12.119Z,77.90
2022-10-19T08:19:43.639Z,76.60
2022-10-19T08:22:34.603Z,75.40
2022-10-19T08:25:02.925Z,75.40
2022-10-19T08:27:31.362Z,75.80
2022-10-19T08:29:58.841Z,76.50
2022-10-19T08:32:27.197Z,78.50
2022-10-19T08:34:55.832Z,76.80
2022-10-19T08:37:40.628Z,74.90
2022-10-19T08:40:28.588Z,75.30
2022-10-19T08:43:01.935Z,74.60
2022-10-19T08:45:54.191Z,74.10
2022-10-19T08:48:25.535Z,73.80
2022-10-19T08:50:56.120Z,74.50
2022-10-19T08:53:45.450Z,74.60
2022-10-19T08:56:45.763Z,73.10
2022-10-19T08:59:28.697Z,72.60
2022-10-19T09:02:22.931Z,72.10
2022-10-19T09:04:59.822Z,71.50
2022-10-19T09:07:34.932Z,71.20
2022-10-19T09:10:19.172Z,70.70
2022-10-19T09:12:46.713Z,70.70
2022-10-19T09:15:38.875Z,70.70
2022-10-19T09:18:20.996Z,68.60
2022-10-19T09:21:05.010Z,70.50
2022-10-19T09:23:52.900Z,70.20
2022-10-19T09:26:25.312Z,68.50
2022-10-19T09:29:05.904Z,69.40
2022-10-19T09:31:43.788Z,70.40
2022-10-19T09:34:41.659Z,69.20
2022-10-19T09:37:09.048Z,68.50
2022-10-19T09:39:36.379Z,66.80
2022-10-19T09:42:33.807Z,67.10
2022-10-19T09:45:18.798Z,67.60
2022-10-19T09:47:49.149Z,68.70
2022-10-19T09:50:22.985Z,67.00
2022-10-19T09:52:55.374Z,66.00
2022-10-19T09:55:28.756Z,65.20
2022-10-19T09:58:02.209Z,65.00
2022-10-19T10:00:54.290Z,63.20
2022-10-19T10:03:35.523Z,64.40
2022-10-19T10:06:13.741Z,64.20
2022-10-19T10:08:59.008Z,63.30
2022-10-19T10:11:33.198Z,63.40
2022-10-19T10:14:09.822Z,62.20
2022-10-19T10:16:37.864Z,62.50
2022-10-19T10:19:13.314Z,61.90
2022-10-19T10:21:55.643Z,60.50
2022-10-19T10:24:29.437Z,61.60
2022-10-19T10:27:05.877Z,60.10
2022-10-19T10:29:39.326Z,59.20
2022-10-19T10:32:18.208Z,58.80
2022-10-19T10:34:59.955Z,59.90
2022-10-19T10:37:39.912Z,59.00
2022-10-19T10:40:26.694Z,56.60
2022-10-19T10:43:04.792Z,56.60
2022-10-19T10:45:58.681Z,55.10
2022-10-19T10:48:32.870Z,55.40
2022-10-19T10:51:01.877Z,54.10
2022-10-19T10:53:43.501Z,53.70
2022-10-19T10:56:33.618Z,53.10
2022-10-19T10:59:05.189Z,53.70
2022-10-19T11:01:49.126Z,51.70
2022-10-19T11:04:25.534Z,53.50
2022-10-19T11:06:59.546Z,52.90
2022-10-19T11:09:39.957Z,53.80
2022-10-19T11:12:12.794Z,53.00
2022-10-19T11:15:06.145Z,51.80
2022-10-19T11:17:41.450Z,53.50
2022-10-19T11:20:17.017Z,50.90
2022-10-19T11:23:07.288Z,51.90
2022-10-19T11:26:23.925Z,52.70
2022-10-19T11:29:15.933Z,52.40
2022-10-19T11:31:51.230Z,51.20
2022-10-19T11:35:06.547Z,49.90
2022-10-19T11:38:19.723Z,51.00
2022-10-19T11:41:17.251Z,51.40
2022-10-19T11:44:07.718Z,50.50
2022-10-19T11:46:39.633Z,50.00
2022-10-19T11:49:25.218Z,50.00
2022-10-19T11:52:09.364Z,50.80
2022-10-19T11:54:39.756Z,50.70
2022-10-19T11:57:17.428Z,51.00
2022-10-19T11:59:53.840Z,49.00
2022-10-19T12:02:39.975Z,49.80
2022-10-19T12:05:22.038Z,51.90
2022-10-19T12:07:49.373Z,50.40
2022-10-19T12:10:51.378Z,50.90
2022-10-19T12:13:23.655Z,52.50
2022-10-19T12:16:00.792Z,53.60
2022-10-19T12:18:41.469Z,51.60
2022-10-19T12:21:45.966Z,51.50
2022-10-19T12:24:18.394Z,51.10
2022-10-19T12:26:47.084Z,49.80
2022-10-19T12:29:25.950Z,50.00
2022-10-19T12:31:56.121Z,50.60
2022-10-19T12:34:46.936Z,51.20
2022-10-19T12:37:39.811Z,50.00
2022-10-19T12:40:40.278Z,47.60
2022-10-19T12:43:19.593Z,47.40
2022-10-19T12:46:17.465Z,49.20
2022-10-19T12:49:07.525Z,47.60
2022-10-19T12:51:46.454Z,48.40
2022-10-19T12:54:14.046Z,47.40
2022-10-19T12:56:53.857Z,49.10
2022-10-19T12:59:29.701Z,49.30
2022-10-19T13:02:01.528Z,46.20
2022-10-19T13:04:33.801Z,46.60
2022-10-19T13:07:05.612Z,47.00
2022-10-19T13:09:36.815Z,45.90
2022-10-19T13:12:19.778Z,45.40
2022-10-19T13:14:59.775Z,46.00
2022-10-19T13:17:38.324Z,48.00
2022-10-19T13:20:14.880Z,48.70
2022-10-19T13:22:47.453Z,48.20
2022-10-19T13:25:18.988Z,47.10
2022-10-19T13:27:52.620Z,47.30
2022-10-19T13:30:48.973Z,45.70
2022-10-19T13:33:35.112Z,48.40
2022-10-19T13:36:08.566Z,48.30
2022-10-19T13:39:06.085Z,49.10
2022-10-19T13:41:59.384Z,49.40
2022-10-19T13:44:30.383Z,50.60
2022-10-19T13:47:24.059Z,49.20
2022-10-19T13:50:09.077Z,49.40
2022-10-19T13:52:47.688Z,50.50
2022-10-19T13:55:50.325Z,49.00
2022-10-19T13:58:30.532Z,48.90
2022-10-19T14:01:22.215Z,50.10
2022-10-19T14:04:08.201Z,48.90
2022-10-19T14:06:54.829Z,50.40
2022-10-19T14:09:50.366Z,48.40
2022-10-19T14:12:22.532Z,49.70
2022-10-19T14:14:53.804Z,47.90
2022-10-19T14:17:26.110Z,48.10
2022-10-19T14:19:59.963Z,47.00
2022-10-19T14:22:36.361Z,47.70
2022-10-19T14:25:17.858Z,47.10
2022-10-19T14:27:47.138Z,47.40
2022-10-19T14:30:36.231Z,47.20
2022-10-19T14:33:10.818Z,46.60
2022-10-19T14:35:41.969Z,49.90
2022-10-19T14:38:19.357Z,50.60
2022-10-19T14:40:47.233Z,49.30
2022-10-19T14:43:35.341Z,51.70
2022-10-19T14:46:21.018Z,50.80
2022-10-19T14:48:59.954Z,53.90
2022-10-19T14:51:42.430Z,51.80
2022-10-19T14:54:37.306Z,50.80
2022-10-19T14:57:09.637Z,51.70
2022-10-19T14:59:39.847Z,49.30
2022-10-19T15:02:20.970Z,46.60
2022-10-19T15:04:50.815Z,45.20
2022-10-19T15:07:22.959Z,46.60
2022-10-19T15:09:58.045Z,45.70
2022-10-19T15:12:36.319Z,45.20
2022-10-19T15:15:36.390Z,46.60
2022-10-19T15:18:25.326Z,51.60
2022-10-19T15:21:14.440Z,56.30
2022-10-19T15:23:50.516Z,59.10
2022-10-19T15:26:20.993Z,59.70
2022-10-19T15:28:49.596Z,60.80
2022-10-19T15:31:25.097Z,61.60
2022-10-19T15:34:00.884Z,61.90
2022-10-19T15:36:33.419Z,62.10
2022-10-19T15:39:25.220Z,63.70
2022-10-19T15:42:24.891Z,63.80
2022-10-19T15:44:52.233Z,63.80
2022-10-19T15:47:23.313Z,63.90
2022-10-19T15:50:01.901Z,63.60
2022-10-19T15:52:33.488Z,64.60
2022-10-19T15:55:02.201Z,66.10
2022-10-19T15:57:39.311Z,65.80
2022-10-19T16:00:20.457Z,65.70
2022-10-19T16:02:50.525Z,66.00
2022-10-19T16:05:18.198Z,65.60
2022-10-19T16:07:45.777Z,66.10
2022-10-19T16:10:45.410Z,66.40
2022-10-19T16:13:12.990Z,66.90
2022-10-19T16:15:56.784Z,67.70
2022-10-19T16:18:41.373Z,68.60
2022-10-19T16:21:11.489Z,68.70
2022-10-19T16:23:42.228Z,69.10
2022-10-19T16:26:16.083Z,69.30
2022-10-19T16:28:44.110Z,69.80
2022-10-19T16:31:16.531Z,70.10
2022-10-19T16:33:44.035Z,69.90
2022-10-19T16:36:13.342Z,70.00
2022-10-19T16:38:42.228Z,70.20
2022-10-19T16:44:45.486Z,70.50
2022-10-19T16:47:14.284Z,70.90
2022-10-19T16:49:42.718Z,70.80
2022-10-19T16:52:14.363Z,70.60
2022-10-19T16:54:43.102Z,70.70
2022-10-19T16:57:11.882Z,71.80
2022-10-19T16:59:41.450Z,73.80
2022-10-19T17:02:12.322Z,75.00
2022-10-19T17:04:41.816Z,76.50
2022-10-19T17:07:10.451Z,77.90
2022-10-19T17:09:42.807Z,78.30
2022-10-19T17:12:12.788Z,77.60
2022-10-19T17:14:43.117Z,76.70
2022-10-19T17:17:15.329Z,75.80
2022-10-19T17:19:44.193Z,74.80
2022-10-19T17:22:11.556Z,75.00
2022-10-19T17:24:42.105Z,75.80
2022-10-19T17:27:10.987Z,75.50
2022-10-19T17:29:39.792Z,75.10
2022-10-19T17:32:14.048Z,75.70
2022-10-19T17:34:44.710Z,75.80
2022-10-19T17:37:16.936Z,77.20
2022-10-19T17:39:44.541Z,78.50
2022-10-19T17:42:12.540Z,78.60
2022-10-19T17:44:42.210Z,77.90
2022-10-19T17:47:11.990Z,77.60
2022-10-19T17:49:46.176Z,77.30
2022-10-19T17:52:19.696Z,78.10
2022-10-19T17:55:00.586Z,78.90
2022-10-19T17:57:38.870Z,78.80
2022-10-19T18:00:09.442Z,78.30
2022-10-19T18:02:44.185Z,77.30
2022-10-19T18:05:21.830Z,77.50
2022-10-19T18:07:51.564Z,79.00
2022-10-19T18:10:18.909Z,78.50
2022-10-19T18:12:49.199Z,78.70
2022-10-19T18:15:35.963Z,78.70
2022-10-19T18:18:03.899Z,79.70
2022-10-19T18:20:35.148Z,80.30
2022-10-19T18:23:03.094Z,80.20
2022-10-19T18:25:52.890Z,79.40
2022-10-19T18:28:24.392Z,78.50
2022-10-19T18:30:58.298Z,76.90
2022-10-19T18:33:29.091Z,77.60
2022-10-19T18:35:59.183Z,79.70
2022-10-19T18:38:26.488Z,79.60
2022-10-19T18:40:54.131Z,79.00
2022-10-19T18:43:21.450Z,78.90
2022-10-19T18:46:01.455Z,78.90
2022-10-19T18:48:30.019Z,79.70
2022-10-19T18:50:58.836Z,81.20
2022-10-19T18:53:26.860Z,81.20
2022-10-19T18:56:09.881Z,81.00
2022-10-19T18:58:38.233Z,81.00
2022-10-19T19:01:16.873Z,83.00
2022-10-19T19:03:50.062Z,82.20
2022-10-19T19:06:22.502Z,80.90
2022-10-19T19:08:58.867Z,80.00
2022-10-19T19:11:33.061Z,83.10
2022-10-19T19:14:31.298Z,87.50
2022-10-19T19:17:01.694Z,90.50
2022-10-19T19:19:30.914Z,90.10
2022-10-19T19:21:58.362Z,88.50
2022-10-19T19:24:32.027Z,86.70
2022-10-19T19:27:00.396Z,85.40
2022-10-19T19:29:28.133Z,82.60
2022-10-19T19:31:59.340Z,83.40
2022-10-19T19:34:29.281Z,84.30
2022-10-19T19:36:57.322Z,86.50
2022-10-19T19:39:25.443Z,87.20
2022-10-19T19:41:52.881Z,86.70
2022-10-19T19:44:23.212Z,86.50
2022-10-19T19:46:52.494Z,85.30
2022-10-19T19:49:21.097Z,84.40
2022-10-19T19:51:49.881Z,83.20
2022-10-19T19:54:17.655Z,81.50
2022-10-19T19:56:45.083Z,81.90
2022-10-19T19:59:13.928Z,82.90
2022-10-19T20:01:43.344Z,81.50
2022-10-19T20:04:11.694Z,80.90
2022-10-19T20:06:44.040Z,80.10
2022-10-19T20:09:13.424Z,80.90
2022-10-19T20:11:43.026Z,82.20
2022-10-19T20:14:13.293Z,83.50
2022-10-19T20:16:42.464Z,85.70
2022-10-19T20:19:14.931Z,86.30
2022-10-19T20:21:43.897Z,85.10
2022-10-19T20:24:12.831Z,84.40
2022-10-19T20:26:41.319Z,83.00
2022-10-19T20:29:09.059Z,81.70
2022-10-19T20:31:39.821Z,80.30
2022-10-19T20:34:14.830Z,82.40
2022-10-19T20:36:46.392Z,85.50
2022-10-19T20:39:14.703Z,84.90
2022-10-19T20:41:43.875Z,84.90
2022-10-19T20:44:12.788Z,84.60
2022-10-19T20:46:41.050Z,83.40
2022-10-19T20:49:11.064Z,82.20
2022-10-19T20:51:39.381Z,80.20
2022-10-19T20:54:13.499Z,83.60
2022-10-19T20:56:44.217Z,87.50
2022-10-19T20:59:20.911Z,89.80
2022-10-19T21:01:51.287Z,89.90
2022-10-19T21:04:21.011Z,88.30
2022-10-19T21:06:51.072Z,86.20
2022-10-19T21:09:20.909Z,83.00
2022-10-19T21:11:50.466Z,84.40
2022-10-19T21:14:28.439Z,86.20
2022-10-19T21:16:58.271Z,87.90
2022-10-19T21:19:27.686Z,88.30
2022-10-19T21:21:58.208Z,88.00
2022-10-19T21:24:28.864Z,86.90
2022-10-19T21:26:56.095Z,86.60
2022-10-19T21:29:24.867Z,86.20
2022-10-19T21:31:53.779Z,84.80
2022-10-19T21:34:24.312Z,83.90
2022-10-19T21:36:52.425Z,86.00
2022-10-19T21:39:21.455Z,85.40
2022-10-19T21:41:49.924Z,84.50
2022-10-19T21:44:18.770Z,84.70
2022-10-19T21:46:51.066Z,83.30
2022-10-19T21:49:18.740Z,83.20
2022-10-19T21:51:49.931Z,82.40
2022-10-19T21:54:19.987Z,82.40
2022-10-19T21:56:49.313Z,82.20
2022-10-19T21:59:18.074Z,82.00
2022-10-19T22:01:50.298Z,83.20
2022-10-19T22:04:18.895Z,82.60
2022-10-19T22:06:47.061Z,82.00
2022-10-19T22:09:20.843Z,82.40
2022-10-19T22:11:49.611Z,82.10
2022-10-19T22:14:17.085Z,84.10
2022-10-19T22:16:45.705Z,84.10
2022-10-19T22:19:17.161Z,83.30
2022-10-19T22:21:45.196Z,82.10
2022-10-19T22:24:15.502Z,82.10
2022-10-19T22:26:47.216Z,85.60
2022-10-19T22:29:15.884Z,87.80
2022-10-19T22:31:47.863Z,88.70
2022-10-19T22:34:17.276Z,87.80
2022-10-19T22:36:45.700Z,86.40
2022-10-19T22:39:15.052Z,84.30
2022-10-19T22:42:39.851Z,84.60
2022-10-19T22:46:25.321Z,85.70
2022-10-19T22:50:08.743Z,87.10
2022-10-19T22:53:00.805Z,87.30
2022-10-19T22:55:28.223Z,84.70
2022-10-19T22:57:56.051Z,85.40
2022-10-19T23:00:39.550Z,86.60
2022-10-19T23:03:12.431Z,88.90
2022-10-19T23:05:42.278Z,88.70
2022-10-19T23:08:12.307Z,87.30
2022-10-19T23:10:39.660Z,86.00
2022-10-19T23:13:36.579Z,85.30
2022-10-19T23:16:14.336Z,84.50
2022-10-19T23:18:42.064Z,82.90
2022-10-19T23:21:13.013Z,85.60
2022-10-19T23:23:41.399Z,86.50
2022-10-19T23:26:13.856Z,85.90
2022-10-19T23:28:42.679Z,84.80
2022-10-19T23:31:20.974Z,83.40
2022-10-19T23:33:48.354Z,85.90
2022-10-19T23:36:18.018Z,87.60
2022-10-19T23:38:46.886Z,87.20
2022-10-19T23:41:16.412Z,86.80
2022-10-19T23:43:44.329Z,86.60
2022-10-19T23:46:18.572Z,84.90
2022-10-19T23:48:48.081Z,83.30
2022-10-19T23:51:18.440Z,83.80
2022-10-19T23:53:47.946Z,84.90
2022-10-19T23:56:17.043Z,84.30
2022-10-19T23:58:45.153Z,83.30
